Decoded Metar for KPQL (PASCAGOULA in MS, USA) (IATA:PQL) | Meteo·Mobile Aviation Weather
aviador You're here:

KPQL Decoded Metar

PASCAGOULA in MS, USA
Report Time2020-02-22 21:53:00
UTC Time2020-02-22 21:59:34
Flight Rules vfr VFR
Wind160° at 06 kt
W.Decomp.*RWY 17: 5.9 kt HW 1.1 kt LCW
Visibility9999 m
Phenomena:N/A
Clouds:N/A
Expected CloudBase > 4,400 ft AGL from Temp-Dew spread
CeilingNone
Temp15°C (ISA 0)
Dew Point04°C (48% RH)
AAT11.5°C
QNH1028 hPa
Density Alt-367 ft
Elevation20 ft
Report Wrong Elevation
Raw Report
METAR KPQL 222153Z 16006KT 10SM CLR 15/04 A3036 RMK AO2 SLP280
T01500044=

Extra information for KPQL:More info

Metar Taf Metar & Taf Last 4 Metars F.Rules Stats Wind Profile Meteogram Temp Stats Airport Information Weather charts Add Link Nearby VenuesMetar ALERT Operation Metar Decoded Social comments

AIRNAV info for KPQL